createdAt,value
2022-11-15T00:00:25.504Z,7.04
2022-11-15T00:03:15.304Z,7.03
2022-11-15T00:06:03.972Z,7.03
2022-11-15T00:08:50.968Z,7.05
2022-11-15T00:11:41.324Z,7.05
2022-11-15T00:14:28.295Z,7.05
2022-11-15T00:17:15.202Z,7.06
2022-11-15T00:20:02.335Z,7.06
2022-11-15T00:22:49.120Z,7.07
2022-11-15T00:25:36.347Z,7.08
2022-11-15T00:28:23.470Z,7.08
2022-11-15T00:31:14.634Z,7.07
2022-11-15T00:34:01.331Z,7.07
2022-11-15T00:36:48.141Z,7.08
2022-11-15T00:39:35.213Z,7.06
2022-11-15T00:42:22.068Z,7.06
2022-11-15T00:45:09.930Z,7.06
2022-11-15T00:47:58.149Z,7.02
2022-11-15T00:50:45.314Z,7.00
2022-11-15T00:53:32.409Z,6.95
2022-11-15T00:56:19.647Z,6.90
2022-11-15T00:59:06.416Z,6.83
2022-11-15T01:01:53.568Z,6.78
2022-11-15T01:04:40.401Z,6.73
2022-11-15T01:07:27.620Z,6.68
2022-11-15T01:10:15.556Z,6.62
2022-11-15T01:13:02.643Z,6.59
2022-11-15T01:15:49.345Z,6.54
2022-11-15T01:18:36.523Z,6.51
2022-11-15T01:21:26.577Z,6.44
2022-11-15T01:24:14.075Z,6.40
2022-11-15T01:27:01.248Z,6.38
2022-11-15T01:29:51.610Z,6.30
2022-11-15T01:32:38.898Z,6.30
2022-11-15T01:35:25.679Z,6.24
2022-11-15T01:38:12.897Z,6.20
2022-11-15T01:40:59.719Z,6.16
2022-11-15T01:43:59.351Z,6.13
2022-11-15T01:46:51.554Z,6.12
2022-11-15T01:49:41.929Z,6.15
2022-11-15T01:52:31.144Z,6.18
2022-11-15T01:55:23.854Z,6.22
2022-11-15T01:58:17.234Z,6.25
2022-11-15T02:01:04.976Z,6.29
2022-11-15T02:03:54.210Z,6.34
2022-11-15T02:06:42.428Z,6.37
2022-11-15T02:09:30.048Z,6.40
2022-11-15T02:12:20.607Z,6.44
2022-11-15T02:15:09.779Z,6.48
2022-11-15T02:18:38.178Z,6.50
2022-11-15T02:21:31.428Z,6.55
2022-11-15T02:24:43.530Z,6.59
2022-11-15T02:27:30.425Z,6.61
2022-11-15T02:30:30.029Z,6.65
2022-11-15T02:33:28.834Z,6.67
2022-11-15T02:36:27.781Z,6.71
2022-11-15T02:39:31.988Z,6.73
2022-11-15T02:42:44.760Z,6.75
2022-11-15T02:45:37.265Z,6.78
2022-11-15T02:48:27.335Z,6.81
2022-11-15T02:51:15.083Z,6.84
2022-11-15T02:54:03.527Z,6.86
2022-11-15T02:56:59.820Z,6.88
2022-11-15T03:00:06.553Z,6.90
2022-11-15T03:03:11.623Z,6.92
2022-11-15T03:06:10.456Z,6.93
2022-11-15T03:09:37.008Z,6.95
2022-11-15T03:12:38.512Z,6.96
2022-11-15T03:15:33.816Z,6.97
2022-11-15T03:18:27.720Z,6.98
2022-11-15T03:21:17.540Z,7.00
2022-11-15T03:24:06.887Z,7.00
2022-11-15T03:26:55.977Z,7.01
2022-11-15T03:29:48.878Z,7.04
2022-11-15T03:32:41.235Z,7.06
2022-11-15T03:35:31.316Z,7.06
2022-11-15T03:38:27.675Z,7.08
2022-11-15T03:41:24.524Z,7.09
2022-11-15T03:44:23.694Z,7.13
2022-11-15T03:47:17.468Z,7.14
2022-11-15T03:50:11.726Z,7.17
2022-11-15T03:53:01.916Z,7.18
2022-11-15T03:55:48.905Z,7.19
2022-11-15T03:58:35.755Z,7.20
2022-11-15T04:01:23.116Z,7.20
2022-11-15T04:04:10.811Z,7.21
2022-11-15T04:06:58.904Z,7.21
2022-11-15T04:10:05.094Z,7.22
2022-11-15T04:12:52.074Z,7.24
2022-11-15T04:15:42.526Z,7.25
2022-11-15T04:18:29.315Z,7.27
2022-11-15T04:21:34.839Z,7.28
2022-11-15T04:24:21.523Z,7.29
2022-11-15T04:27:08.712Z,7.30
2022-11-15T04:29:57.843Z,7.31
2022-11-15T04:32:44.759Z,7.32
2022-11-15T04:35:31.959Z,7.32
2022-11-15T04:38:18.843Z,7.34
2022-11-15T04:41:05.989Z,7.34
2022-11-15T04:43:53.061Z,7.34
2022-11-15T04:46:39.977Z,7.34
2022-11-15T04:49:27.346Z,7.36
2022-11-15T04:52:14.316Z,7.38
2022-11-15T04:55:07.735Z,7.38
2022-11-15T04:58:00.000Z,7.37
2022-11-15T05:00:46.690Z,7.37
2022-11-15T05:03:52.078Z,7.37
2022-11-15T05:06:38.966Z,7.35
2022-11-15T05:09:26.209Z,7.35
2022-11-15T05:12:13.910Z,7.36
2022-11-15T05:15:00.617Z,7.36
2022-11-15T05:17:47.570Z,7.36
2022-11-15T05:20:34.643Z,7.37
2022-11-15T05:23:21.607Z,7.37
2022-11-15T05:26:12.581Z,7.39
2022-11-15T05:29:00.343Z,7.39
2022-11-15T05:31:47.170Z,7.41
2022-11-15T05:34:34.308Z,7.42
2022-11-15T05:37:21.147Z,7.42
2022-11-15T05:40:08.868Z,7.45
2022-11-15T05:42:55.949Z,7.47
2022-11-15T05:45:42.852Z,7.47
2022-11-15T05:48:33.149Z,7.48
2022-11-15T05:51:22.615Z,7.51
2022-11-15T05:54:11.374Z,7.52
2022-11-15T05:56:58.340Z,7.53
2022-11-15T05:59:45.556Z,7.55
2022-11-15T06:02:32.473Z,7.57
2022-11-15T06:05:20.834Z,7.58
2022-11-15T06:08:07.939Z,7.61
2022-11-15T06:10:54.837Z,7.63
2022-11-15T06:13:41.912Z,7.64
2022-11-15T06:16:28.830Z,7.67
2022-11-15T06:19:15.823Z,7.67
2022-11-15T06:22:03.338Z,7.70
2022-11-15T06:24:50.135Z,7.73
2022-11-15T06:27:37.193Z,7.75
2022-11-15T06:30:26.345Z,7.78
2022-11-15T06:33:13.457Z,7.80
2022-11-15T06:36:14.523Z,7.83
2022-11-15T06:39:05.851Z,7.87
2022-11-15T06:41:52.614Z,7.89
2022-11-15T06:44:39.576Z,7.91
2022-11-15T06:47:26.416Z,7.95
2022-11-15T06:50:14.224Z,7.99
2022-11-15T06:53:08.353Z,8.02
2022-11-15T06:56:07.618Z,8.06
2022-11-15T06:58:54.796Z,8.09
2022-11-15T07:01:41.783Z,8.12
2022-11-15T07:04:28.851Z,8.15
2022-11-15T07:07:16.153Z,8.18
2022-11-15T07:10:04.532Z,8.22
2022-11-15T07:12:54.089Z,8.24
2022-11-15T07:15:40.773Z,8.28
2022-11-15T07:18:28.504Z,8.31
2022-11-15T07:21:15.725Z,8.35
2022-11-15T07:24:02.962Z,8.37
2022-11-15T07:26:49.697Z,8.41
2022-11-15T07:29:36.898Z,8.45
2022-11-15T07:32:24.041Z,8.49
2022-11-15T07:35:12.569Z,8.52
2022-11-15T07:38:03.406Z,8.55
2022-11-15T07:40:58.815Z,8.58
2022-11-15T07:43:46.796Z,8.62
2022-11-15T07:46:33.759Z,8.64
2022-11-15T07:49:24.252Z,8.67
2022-11-15T07:52:11.621Z,8.69
2022-11-15T07:54:58.438Z,8.73
2022-11-15T07:57:45.369Z,8.74
2022-11-15T08:00:34.443Z,8.77
2022-11-15T08:03:21.516Z,8.81
2022-11-15T08:06:08.459Z,8.83
2022-11-15T08:08:55.476Z,8.86
2022-11-15T08:11:43.135Z,8.90
2022-11-15T08:14:30.349Z,8.92
2022-11-15T08:17:17.514Z,8.95
2022-11-15T08:20:05.872Z,9.00
2022-11-15T08:22:53.089Z,9.03
2022-11-15T08:25:41.397Z,9.05
2022-11-15T08:28:28.441Z,9.07
2022-11-15T08:31:18.458Z,9.12
2022-11-15T08:34:06.838Z,9.15
2022-11-15T08:36:53.587Z,9.19
2022-11-15T08:39:40.558Z,9.22
2022-11-15T08:42:27.606Z,9.25
2022-11-15T08:45:15.171Z,9.30
2022-11-15T08:48:03.544Z,9.34
2022-11-15T08:50:57.735Z,9.40
2022-11-15T08:53:44.635Z,9.49
2022-11-15T08:56:32.019Z,9.56
2022-11-15T08:59:19.147Z,9.66
2022-11-15T09:02:06.685Z,9.71
2022-11-15T09:04:54.120Z,9.76
2022-11-15T09:07:41.230Z,9.81
2022-11-15T09:10:29.557Z,9.84
2022-11-15T09:13:16.657Z,9.88
2022-11-15T09:16:05.530Z,9.93
2022-11-15T09:18:54.785Z,10.02
2022-11-15T09:21:41.743Z,10.12
2022-11-15T09:24:28.766Z,10.20
2022-11-15T09:27:15.782Z,10.32
2022-11-15T09:30:03.195Z,10.39
2022-11-15T09:32:50.405Z,10.46
2022-11-15T09:35:38.250Z,10.51
2022-11-15T09:38:25.624Z,10.54
2022-11-15T09:41:30.551Z,10.57
2022-11-15T09:44:26.132Z,10.61
2022-11-15T09:47:25.494Z,10.63
2022-11-15T09:50:34.102Z,10.64
2022-11-15T09:53:02.763Z,10.66
2022-11-15T09:55:47.751Z,10.67
2022-11-15T09:58:27.450Z,10.70
2022-11-15T10:01:02.271Z,10.74
2022-11-15T10:03:42.918Z,10.75
2022-11-15T10:06:26.170Z,10.77
2022-11-15T10:09:13.541Z,10.77
2022-11-15T10:11:42.587Z,10.76
2022-11-15T10:14:21.564Z,10.77
2022-11-15T10:17:12.665Z,10.78
2022-11-15T10:20:09.002Z,10.75
2022-11-15T10:22:59.630Z,10.76
2022-11-15T10:25:36.288Z,10.76
2022-11-15T10:28:05.069Z,10.76
2022-11-15T10:30:39.238Z,10.77
2022-11-15T10:33:36.696Z,10.79
2022-11-15T10:36:14.744Z,10.79
2022-11-15T10:38:49.058Z,10.81
2022-11-15T10:41:17.617Z,10.81
2022-11-15T10:44:01.530Z,10.83
2022-11-15T10:46:46.199Z,10.82
2022-11-15T10:49:22.918Z,10.84
2022-11-15T10:51:59.033Z,10.84
2022-11-15T10:54:46.389Z,10.84
2022-11-15T10:57:18.420Z,10.85
2022-11-15T10:59:50.363Z,10.86
2022-11-15T11:02:33.833Z,10.87
2022-11-15T11:05:05.974Z,10.89
2022-11-15T11:07:36.949Z,10.89
2022-11-15T11:10:49.752Z,10.89
2022-11-15T11:13:40.395Z,10.88
2022-11-15T11:16:11.754Z,10.89
2022-11-15T11:19:15.063Z,10.88
2022-11-15T11:21:58.807Z,10.87
2022-11-15T11:24:37.646Z,10.87
2022-11-15T11:27:27.669Z,10.90
2022-11-15T11:29:56.114Z,10.93
2022-11-15T11:32:30.550Z,10.95
2022-11-15T11:35:21.489Z,10.96
2022-11-15T11:38:05.606Z,10.96
2022-11-15T11:40:56.385Z,10.95
2022-11-15T11:43:36.984Z,10.95
2022-11-15T11:46:27.468Z,10.96
2022-11-15T11:49:13.412Z,10.94
2022-11-15T11:52:01.705Z,10.96
2022-11-15T11:54:38.742Z,11.00
2022-11-15T11:57:17.851Z,11.04
2022-11-15T12:00:13.657Z,11.08
2022-11-15T12:02:48.614Z,11.11
2022-11-15T12:05:37.895Z,11.12
2022-11-15T12:08:25.392Z,11.14
2022-11-15T12:11:08.174Z,11.15
2022-11-15T12:13:38.629Z,11.15
2022-11-15T12:16:12.698Z,11.18
2022-11-15T12:18:51.354Z,11.22
2022-11-15T12:21:44.280Z,11.26
2022-11-15T12:24:18.934Z,11.31
2022-11-15T12:26:56.675Z,11.38
2022-11-15T12:29:33.004Z,11.42
2022-11-15T12:32:04.659Z,11.43
2022-11-15T12:34:54.452Z,11.44
2022-11-15T12:37:48.858Z,11.44
2022-11-15T12:40:33.903Z,11.42
2022-11-15T12:43:38.587Z,11.40
2022-11-15T12:46:13.961Z,11.42
2022-11-15T12:48:42.197Z,11.47
2022-11-15T12:51:11.945Z,11.55
2022-11-15T12:53:40.411Z,11.63
2022-11-15T12:56:17.735Z,11.68
2022-11-15T12:58:51.177Z,11.70
2022-11-15T13:01:32.341Z,11.68
2022-11-15T13:04:19.890Z,11.67
2022-11-15T13:07:00.923Z,11.64
2022-11-15T13:09:29.427Z,11.57
2022-11-15T13:11:59.247Z,11.47
2022-11-15T13:14:55.734Z,11.38
2022-11-15T13:17:24.245Z,11.28
2022-11-15T13:20:17.453Z,11.23
2022-11-15T13:22:52.981Z,11.21
2022-11-15T13:26:05.709Z,11.20
2022-11-15T13:28:56.394Z,11.19
2022-11-15T13:31:30.642Z,11.18
2022-11-15T13:34:17.714Z,11.19
2022-11-15T13:36:53.416Z,11.19
2022-11-15T13:39:29.652Z,11.19
2022-11-15T13:41:59.238Z,11.21
2022-11-15T13:44:33.270Z,11.22
2022-11-15T13:47:13.797Z,11.22
2022-11-15T13:49:42.868Z,11.24
2022-11-15T13:52:15.947Z,11.24
2022-11-15T13:54:47.786Z,11.25
2022-11-15T13:57:20.468Z,11.27
2022-11-15T13:59:55.808Z,11.26
2022-11-15T14:02:35.906Z,11.25
2022-11-15T14:05:17.206Z,11.21
2022-11-15T14:08:13.410Z,11.18
2022-11-15T14:10:44.725Z,11.15
2022-11-15T14:13:35.473Z,11.12
2022-11-15T14:16:20.225Z,11.10
2022-11-15T14:18:53.969Z,11.04
2022-11-15T14:21:22.494Z,11.00
2022-11-15T14:23:51.844Z,10.98
2022-11-15T14:26:33.430Z,10.93
2022-11-15T14:29:23.678Z,10.90
2022-11-15T14:31:53.220Z,10.86
2022-11-15T14:34:23.224Z,10.82
2022-11-15T14:36:51.579Z,10.78
2022-11-15T14:39:20.054Z,10.75
2022-11-15T14:41:48.442Z,10.71
2022-11-15T14:44:19.622Z,10.69
2022-11-15T14:46:49.248Z,10.63
2022-11-15T14:49:17.574Z,10.60
2022-11-15T14:51:46.097Z,10.56
2022-11-15T14:54:14.472Z,10.54
2022-11-15T14:56:43.783Z,10.49
2022-11-15T14:59:12.526Z,10.45
2022-11-15T15:01:41.906Z,10.41
2022-11-15T15:04:11.676Z,10.34
2022-11-15T15:06:40.216Z,10.31
2022-11-15T15:09:08.711Z,10.27
2022-11-15T15:11:37.112Z,10.23
2022-11-15T15:14:05.544Z,10.19
2022-11-15T15:16:33.887Z,10.14
2022-11-15T15:19:02.359Z,10.11
2022-11-15T15:21:36.735Z,10.08
2022-11-15T15:24:06.093Z,10.04
2022-11-15T15:26:37.287Z,10.02
2022-11-15T15:29:06.045Z,9.98
2022-11-15T15:31:34.580Z,9.95
2022-11-15T15:34:05.531Z,9.92
2022-11-15T15:36:34.136Z,9.90
2022-11-15T15:39:03.460Z,9.87
2022-11-15T15:41:31.719Z,9.83
2022-11-15T15:44:00.494Z,9.81
2022-11-15T15:46:28.924Z,9.78
2022-11-15T15:48:57.449Z,9.74
2022-11-15T15:51:35.347Z,9.73
2022-11-15T15:54:03.940Z,9.70
2022-11-15T15:56:32.303Z,9.70
2022-11-15T15:59:00.764Z,9.67
2022-11-15T16:01:29.267Z,9.67
2022-11-15T16:03:57.592Z,9.66
2022-11-15T16:06:37.616Z,9.66
2022-11-15T16:09:16.088Z,9.64
2022-11-15T16:11:46.817Z,9.61
2022-11-15T16:14:15.846Z,9.61
2022-11-15T16:16:44.454Z,9.61
2022-11-15T16:19:13.238Z,9.61
2022-11-15T16:21:42.102Z,9.64
2022-11-15T16:24:10.688Z,9.68
2022-11-15T16:26:39.428Z,9.70
2022-11-15T16:29:10.410Z,9.73
2022-11-15T16:31:39.021Z,9.78
2022-11-15T16:34:07.690Z,9.82
2022-11-15T16:36:36.861Z,9.85
2022-11-15T16:39:05.332Z,9.87
2022-11-15T16:41:34.189Z,9.90
2022-11-15T16:44:02.806Z,9.91
2022-11-15T16:46:31.408Z,9.93
2022-11-15T16:48:59.775Z,9.92
2022-11-15T16:51:29.164Z,9.94
2022-11-15T16:53:57.477Z,9.93
2022-11-15T16:56:28.513Z,9.92
2022-11-15T16:58:59.070Z,9.90
2022-11-15T17:01:31.184Z,9.88
2022-11-15T17:04:00.139Z,9.86
2022-11-15T17:06:29.776Z,9.84
2022-11-15T17:08:58.200Z,9.85
2022-11-15T17:11:26.678Z,9.85
2022-11-15T17:13:58.837Z,9.84
2022-11-15T17:16:27.424Z,9.85
2022-11-15T17:18:57.170Z,9.87
2022-11-15T17:21:32.585Z,9.90
2022-11-15T17:24:02.045Z,9.93
2022-11-15T17:26:35.057Z,9.94
2022-11-15T17:29:09.468Z,9.94
2022-11-15T17:31:38.905Z,9.95
2022-11-15T17:34:07.524Z,9.93
2022-11-15T17:36:36.581Z,9.94
2022-11-15T17:39:07.680Z,9.93
2022-11-15T17:41:36.504Z,9.92
2022-11-15T17:44:05.272Z,9.93
2022-11-15T17:46:34.650Z,9.95
2022-11-15T17:49:05.600Z,9.94
2022-11-15T17:51:34.926Z,9.94
2022-11-15T17:54:06.521Z,9.95
2022-11-15T17:56:40.101Z,9.97
2022-11-15T17:59:14.869Z,9.97
2022-11-15T18:01:53.892Z,9.98
2022-11-15T18:04:29.153Z,9.98
2022-11-15T18:06:57.574Z,9.98
2022-11-15T18:09:26.473Z,9.96
2022-11-15T18:11:54.945Z,9.98
2022-11-15T18:14:25.422Z,9.98
2022-11-15T18:16:55.111Z,9.96
2022-11-15T18:19:23.573Z,9.97
2022-11-15T18:21:58.077Z,9.95
2022-11-15T18:24:35.137Z,9.92
2022-11-15T18:27:06.429Z,9.92
2022-11-15T18:29:37.782Z,9.90
2022-11-15T18:32:11.740Z,9.89
2022-11-15T18:34:43.694Z,9.88
2022-11-15T18:37:12.360Z,9.86
2022-11-15T18:39:40.786Z,9.83
2022-11-15T18:42:09.228Z,9.81
2022-11-15T18:44:37.512Z,9.79
2022-11-15T18:47:06.074Z,9.76
2022-11-15T18:49:34.640Z,9.76
2022-11-15T18:52:05.556Z,9.76
2022-11-15T18:54:33.836Z,9.76
2022-11-15T18:57:05.510Z,9.75
2022-11-15T18:59:33.810Z,9.76
2022-11-15T19:02:02.082Z,9.78
2022-11-15T19:04:30.581Z,9.81
2022-11-15T19:07:06.475Z,9.84
2022-11-15T19:09:35.121Z,9.86
2022-11-15T19:12:03.870Z,9.89
2022-11-15T19:14:36.442Z,9.91
2022-11-15T19:17:04.948Z,9.94
2022-11-15T19:19:53.578Z,9.96
2022-11-15T19:22:22.162Z,9.98
2022-11-15T19:25:09.138Z,9.98
2022-11-15T19:27:41.278Z,9.98
2022-11-15T19:36:59.212Z,9.94
2022-11-15T19:39:27.780Z,9.95
2022-11-15T19:41:58.544Z,9.98
2022-11-15T19:45:29.529Z,10.00
2022-11-15T19:47:43.149Z,10.00
2022-11-15T19:50:49.128Z,10.01
2022-11-15T19:53:37.968Z,10.01
2022-11-15T19:56:35.891Z,10.03
2022-11-15T19:59:33.665Z,10.03
2022-11-15T20:02:05.559Z,10.03
2022-11-15T20:14:20.772Z,10.11
2022-11-15T20:17:03.803Z,10.11
2022-11-15T20:19:34.882Z,10.11
2022-11-15T20:26:08.786Z,10.14
2022-11-15T20:31:38.150Z,10.15
2022-11-15T20:34:16.110Z,10.18
2022-11-15T20:36:44.481Z,10.21
2022-11-15T20:39:12.742Z,10.22
2022-11-15T20:41:41.143Z,10.24
2022-11-15T20:44:10.564Z,10.25
2022-11-15T20:46:38.920Z,10.27
2022-11-15T20:49:07.513Z,10.26
2022-11-15T20:51:36.976Z,10.27
2022-11-15T20:54:06.233Z,10.29
2022-11-15T20:56:35.972Z,10.29
2022-11-15T20:59:07.400Z,10.29
2022-11-15T21:01:35.938Z,10.29
2022-11-15T21:04:05.586Z,10.28
2022-11-15T21:06:34.325Z,10.29
2022-11-15T21:09:21.318Z,10.30
2022-11-15T21:12:08.360Z,10.30
2022-11-15T21:14:40.240Z,10.31
2022-11-15T21:17:10.658Z,10.32
2022-11-15T21:19:39.376Z,10.31
2022-11-15T21:22:09.649Z,10.33
2022-11-15T21:24:38.180Z,10.34
2022-11-15T21:27:07.747Z,10.37
2022-11-15T21:29:39.142Z,10.38
2022-11-15T21:32:09.056Z,10.39
2022-11-15T21:34:38.150Z,10.39
2022-11-15T21:37:07.999Z,10.40
2022-11-15T21:39:36.635Z,10.39
2022-11-15T21:42:05.550Z,10.40
2022-11-15T21:44:33.874Z,10.38
2022-11-15T21:47:02.469Z,10.38
2022-11-15T21:49:31.856Z,10.34
2022-11-15T21:52:00.196Z,10.33
2022-11-15T21:54:28.693Z,10.31
2022-11-15T21:56:58.644Z,10.29
2022-11-15T21:59:29.634Z,10.29
2022-11-15T22:02:17.400Z,10.27
2022-11-15T22:04:45.753Z,10.24
2022-11-15T22:07:14.178Z,10.23
2022-11-15T22:09:43.312Z,10.23
2022-11-15T22:12:14.820Z,10.22
2022-11-15T22:14:43.626Z,10.21
2022-11-15T22:17:13.931Z,10.20
2022-11-15T22:19:52.265Z,10.19
2022-11-15T22:22:23.044Z,10.18
2022-11-15T22:24:54.402Z,10.18
2022-11-15T22:27:22.735Z,10.17
2022-11-15T22:29:51.025Z,10.17
2022-11-15T22:32:19.812Z,10.17
2022-11-15T22:34:54.591Z,10.16
2022-11-15T22:37:23.302Z,10.16
2022-11-15T22:39:52.115Z,10.15
2022-11-15T22:42:23.620Z,10.14
2022-11-15T22:44:52.630Z,10.12
2022-11-15T22:47:22.972Z,10.09
2022-11-15T22:49:51.504Z,10.08
2022-11-15T22:52:20.666Z,10.07
2022-11-15T22:54:50.265Z,10.06
2022-11-15T22:57:18.789Z,10.04
2022-11-15T22:59:47.834Z,10.05
2022-11-15T23:02:16.288Z,10.02
2022-11-15T23:04:46.283Z,10.02
2022-11-15T23:07:17.131Z,10.01
2022-11-15T23:09:51.743Z,9.99
2022-11-15T23:12:39.570Z,9.98
2022-11-15T23:15:11.018Z,9.98
2022-11-15T23:17:42.844Z,9.96
2022-11-15T23:20:41.404Z,9.95
2022-11-15T23:23:04.593Z,9.95
2022-11-15T23:25:33.133Z,9.95
2022-11-15T23:28:02.703Z,9.94
2022-11-15T23:30:53.810Z,9.94
2022-11-15T23:34:06.316Z,9.93
2022-11-15T23:36:43.436Z,9.94
2022-11-15T23:39:11.970Z,9.94
2022-11-15T23:41:40.391Z,9.94
2022-11-15T23:44:08.759Z,9.94
2022-11-15T23:46:37.919Z,9.95
2022-11-15T23:49:09.718Z,9.95
2022-11-15T23:51:38.120Z,9.94
2022-11-15T23:54:07.346Z,9.95
2022-11-15T23:56:35.887Z,9.94
2022-11-15T23:59:05.192Z,9.94
